Time,TemperatureF,DewpointF,PressureIn,WindDirection,WindDirectionDegrees,WindSpeedMPH,WindSpeedGustMPH,Humidity,HourlyPrecipIn,Conditions,Clouds,dailyrainin,SoftwareType,DateUTC
2013-01-28 06:53:00,66.0,63.0,29.96,NE,42,5.0,11.0,90,0.00,,,1.51,,2013-01-28 16:53:00,
2013-01-28 07:01:00,66.0,62.0,29.96,ENE,75,5.0,12.0,87,0.00,,,1.51,,2013-01-28 17:01:00,
2013-01-28 07:11:00,66.0,62.0,29.96,ENE,75,5.0,12.0,87,0.00,,,1.51,,2013-01-28 17:11:00,
2013-01-28 07:22:00,67.0,63.0,29.96,ENE,62,5.0,13.0,88,0.00,,,1.51,,2013-01-28 17:22:00,
2013-01-28 07:31:00,66.0,62.0,29.96,ENE,77,6.0,10.0,88,0.00,,,1.51,,2013-01-28 17:31:00,
2013-01-28 07:41:00,66.0,62.0,29.96,ENE,77,6.0,10.0,88,0.00,,,1.51,,2013-01-28 17:41:00,
2013-01-28 07:52:00,66.0,62.0,29.96,East,96,10.0,18.0,87,0.00,,,1.51,,2013-01-28 17:52:00,
2013-01-28 08:01:00,66.0,62.0,29.98,NE,52,2.0,11.0,87,0.00,,,1.51,,2013-01-28 18:01:00,
2013-01-28 08:12:00,66.0,62.0,29.98,NE,52,2.0,11.0,87,0.00,,,1.51,,2013-01-28 18:12:00,
2013-01-28 08:22:00,67.0,63.0,29.98,East,91,6.0,15.0,87,0.00,,,1.51,,2013-01-28 18:22:00,
2013-01-28 08:33:00,67.0,63.0,29.98,East,89,7.0,17.0,86,0.00,,,1.51,,2013-01-28 18:33:00,
2013-01-28 08:42:00,67.0,63.0,29.98,East,89,7.0,17.0,86,0.00,,,1.51,,2013-01-28 18:42:00,
2013-01-28 08:52:00,67.0,63.0,29.98,East,79,8.0,15.0,86,0.00,,,1.51,,2013-01-28 18:52:00,
2013-01-28 09:01:00,68.0,64.0,29.98,ENE,75,8.0,15.0,86,0.00,,,1.51,,2013-01-28 19:01:00,
2013-01-28 09:11:00,68.0,64.0,29.98,ENE,75,8.0,15.0,86,0.00,,,1.51,,2013-01-28 19:11:00,
2013-01-28 09:21:00,68.0,64.0,29.98,ENE,62,6.0,13.0,86,0.00,,,1.51,,2013-01-28 19:21:00,
2013-01-28 09:32:00,68.0,63.0,29.98,ENE,74,9.0,15.0,85,0.00,,,1.51,,2013-01-28 19:32:00,
2013-01-28 09:42:00,68.0,63.0,29.98,ENE,74,9.0,15.0,85,0.00,,,1.51,,2013-01-28 19:42:00,
2013-01-28 09:52:00,68.0,63.0,29.99,NNE,17,5.0,14.0,84,0.00,,,1.51,,2013-01-28 19:52:00,
2013-01-28 10:01:00,69.0,64.0,29.99,ENE,68,4.0,9.0,84,0.00,,,1.51,,2013-01-28 20:01:00,
2013-01-28 10:11:00,69.0,64.0,29.99,ENE,68,4.0,9.0,84,0.00,,,1.51,,2013-01-28 20:11:00,
2013-01-28 10:21:00,69.0,64.0,29.99,East,79,5.0,12.0,85,0.00,,,1.51,,2013-01-28 20:21:00,
2013-01-28 10:32:00,69.0,65.0,29.99,ENE,71,6.0,11.0,86,0.00,,,1.51,,2013-01-28 20:32:00,
2013-01-28 10:42:00,69.0,65.0,29.99,ENE,71,6.0,11.0,86,0.00,,,1.51,,2013-01-28 20:42:00,
2013-01-28 10:52:00,69.0,65.0,29.99,East,82,1.0,9.0,86,0.00,,,1.51,,2013-01-28 20:52:00,
2013-01-28 11:02:00,69.0,65.0,29.98,East,87,7.0,14.0,86,0.00,,,1.51,,2013-01-28 21:02:00,
2013-01-28 11:11:00,69.0,65.0,29.98,East,87,7.0,14.0,86,0.00,,,1.51,,2013-01-28 21:11:00,
2013-01-28 11:22:00,70.0,65.0,29.98,ENE,78,6.0,13.0,85,0.00,,,1.51,,2013-01-28 21:22:00,
2013-01-28 11:32:00,69.0,65.0,29.97,East,81,8.0,15.0,86,0.00,,,1.51,,2013-01-28 21:32:00,
2013-01-28 11:42:00,69.0,65.0,29.97,East,81,8.0,15.0,86,0.00,,,1.51,,2013-01-28 21:42:00,
2013-01-28 11:52:00,70.0,65.0,29.97,East,99,6.0,14.0,85,0.00,,,1.51,,2013-01-28 21:52:00,
2013-01-28 12:01:00,71.0,66.0,29.97,East,85,6.0,13.0,83,0.00,,,1.51,,2013-01-28 22:01:00,
2013-01-28 12:11:00,71.0,66.0,29.97,East,85,6.0,13.0,83,0.00,,,1.51,,2013-01-28 22:11:00,
2013-01-28 12:22:00,70.0,66.0,29.97,ESE,107,7.0,14.0,86,0.00,,,1.51,,2013-01-28 22:22:00,
2013-01-28 12:31:00,69.0,66.0,29.96,East,94,5.0,10.0,89,0.01,,,1.52,,2013-01-28 22:31:00,
2013-01-28 12:42:00,69.0,66.0,29.96,East,94,5.0,10.0,89,0.01,,,1.52,,2013-01-28 22:42:00,
2013-01-28 12:52:00,69.0,66.0,29.95,East,97,4.0,9.0,90,0.02,,,1.53,,2013-01-28 22:52:00,
2013-01-28 13:01:00,70.0,66.0,29.94,East,100,5.0,14.0,87,0.02,,,1.53,,2013-01-28 23:01:00,
2013-01-28 13:11:00,70.0,66.0,29.94,East,100,5.0,14.0,87,0.02,,,1.53,,2013-01-28 23:11:00,
2013-01-28 13:21:00,72.0,67.0,29.94,ENE,60,4.0,12.0,84,0.02,,,1.53,,2013-01-28 23:21:00,
2013-01-28 13:31:00,71.0,64.0,29.93,East,90,9.0,13.0,79,0.01,,,1.53,,2013-01-28 23:31:00,
2013-01-28 13:41:00,71.0,64.0,29.93,East,90,9.0,13.0,79,0.01,,,1.53,,2013-01-28 23:41:00,
2013-01-28 13:52:00,71.0,65.0,29.92,East,94,7.0,12.0,82,0.00,,,1.53,,2013-01-28 23:52:00,
2013-01-28 14:01:00,72.0,66.0,29.92,SE,132,3.0,9.0,82,0.00,,,1.53,,2013-01-29 00:01:00,
2013-01-28 14:11:00,72.0,66.0,29.92,SE,132,3.0,9.0,82,0.00,,,1.53,,2013-01-29 00:11:00,
2013-01-28 14:21:00,72.0,66.0,29.91,SSE,152,2.0,12.0,81,0.00,,,1.53,,2013-01-29 00:21:00,
2013-01-28 14:32:00,72.0,65.0,29.91,East,94,6.0,10.0,78,0.00,,,1.53,,2013-01-29 00:32:00,
2013-01-28 14:41:00,72.0,65.0,29.91,East,94,6.0,10.0,78,0.00,,,1.53,,2013-01-29 00:41:00,
2013-01-28 14:52:00,72.0,64.0,29.91,ESE,105,4.0,11.0,77,0.00,,,1.53,,2013-01-29 00:52:00,
2013-01-28 15:01:00,72.0,64.0,29.91,SE,145,5.0,7.0,77,0.00,,,1.53,,2013-01-29 01:01:00,
2013-01-28 15:11:00,72.0,64.0,29.91,SE,145,5.0,7.0,77,0.00,,,1.53,,2013-01-29 01:11:00,
2013-01-28 15:22:00,72.0,65.0,29.91,ESE,106,2.0,8.0,78,0.00,,,1.53,,2013-01-29 01:22:00,
2013-01-28 15:31:00,73.0,66.0,29.90,ESE,106,1.0,7.0,78,0.00,,,1.53,,2013-01-29 01:31:00,
2013-01-28 15:41:00,73.0,66.0,29.90,ESE,106,1.0,7.0,78,0.00,,,1.53,,2013-01-29 01:41:00,
2013-01-28 15:52:00,72.0,64.0,29.91,ESE,117,1.0,9.0,77,0.00,,,1.53,,2013-01-29 01:52:00,
2013-01-28 16:01:00,72.0,64.0,29.91,SE,146,3.0,5.0,77,0.00,,,1.53,,2013-01-29 02:01:00,
2013-01-28 16:11:00,72.0,64.0,29.91,SE,146,3.0,5.0,77,0.00,,,1.53,,2013-01-29 02:11:00,
2013-01-28 16:21:00,72.0,64.0,29.91,SE,125,1.0,7.0,77,0.00,,,1.51,,2013-01-29 02:21:00,
2013-01-28 16:32:00,72.0,65.0,29.91,ESE,117,1.0,8.0,78,0.00,,,1.51,,2013-01-29 02:32:00,
2013-01-28 16:41:00,72.0,65.0,29.91,ESE,117,1.0,8.0,78,0.00,,,1.51,,2013-01-29 02:41:00,
2013-01-28 16:52:00,72.0,64.0,29.91,East,96,4.0,10.0,76,0.00,,,1.51,,2013-01-29 02:52:00,
2013-01-28 17:02:00,72.0,64.0,29.91,ESE,104,0.0,10.0,77,0.00,,,1.51,,2013-01-29 03:02:00,
2013-01-28 17:11:00,72.0,64.0,29.91,ESE,104,0.0,10.0,77,0.00,,,1.51,,2013-01-29 03:11:00,
2013-01-28 17:21:00,71.0,64.0,29.91,ESE,109,1.0,8.0,79,0.00,,,1.51,,2013-01-29 03:21:00,
2013-01-28 17:31:00,72.0,65.0,29.92,ENE,76,1.0,5.0,78,0.00,,,1.51,,2013-01-29 03:31:00,
2013-01-28 17:41:00,72.0,65.0,29.92,ENE,76,1.0,5.0,78,0.00,,,1.51,,2013-01-29 03:41:00,
2013-01-28 17:52:00,71.0,64.0,29.92,East,91,1.0,7.0,79,0.00,,,1.51,,2013-01-29 03:52:00,
2013-01-28 18:01:00,71.0,64.0,29.93,East,91,1.0,5.0,79,0.00,,,1.51,,2013-01-29 04:01:00,
2013-01-28 18:11:00,71.0,64.0,29.93,East,91,1.0,5.0,79,0.00,,,1.51,,2013-01-29 04:11:00,
2013-01-28 18:21:00,71.0,65.0,29.93,East,91,0.0,5.0,80,0.00,,,1.51,,2013-01-29 04:21:00,
2013-01-28 18:31:00,69.0,65.0,29.93,ESE,115,2.0,9.0,88,0.01,,,1.52,,2013-01-29 04:31:00,
2013-01-28 18:41:00,69.0,65.0,29.93,ESE,115,2.0,9.0,88,0.01,,,1.52,,2013-01-29 04:41:00,
2013-01-28 18:51:00,69.0,65.0,29.94,NE,55,0.0,8.0,87,0.01,,,1.52,,2013-01-29 04:51:00,
2013-01-28 19:03:00,68.0,64.0,29.94,ENE,59,2.0,6.0,86,0.01,,,1.52,,2013-01-29 05:03:00,
2013-01-28 19:12:00,68.0,64.0,29.94,ENE,59,2.0,6.0,86,0.01,,,1.52,,2013-01-29 05:12:00,
2013-01-28 19:21:00,68.0,64.0,29.95,ENE,57,1.0,6.0,87,0.01,,,1.52,,2013-01-29 05:21:00,
2013-01-28 19:31:00,68.0,64.0,29.95,ENE,68,3.0,8.0,87,0.00,,,1.52,,2013-01-29 05:31:00,
2013-01-28 19:42:00,68.0,64.0,29.95,ENE,68,3.0,8.0,87,0.00,,,1.52,,2013-01-29 05:42:00,
2013-01-28 19:52:00,69.0,65.0,29.95,ENE,72,1.0,6.0,87,0.00,,,1.52,,2013-01-29 05:52:00,
2013-01-28 20:01:00,69.0,65.0,29.96,East,86,0.0,7.0,87,0.00,,,1.52,,2013-01-29 06:01:00,
2013-01-28 20:11:00,69.0,65.0,29.96,East,86,0.0,7.0,87,0.00,,,1.52,,2013-01-29 06:11:00,
2013-01-28 20:21:00,69.0,65.0,29.96,East,81,4.0,9.0,87,0.00,,,1.52,,2013-01-29 06:21:00,
2013-01-28 20:31:00,69.0,65.0,29.96,ENE,68,0.0,8.0,86,0.00,,,1.52,,2013-01-29 06:31:00,
2013-01-28 20:41:00,69.0,65.0,29.96,ENE,68,0.0,8.0,86,0.00,,,1.52,,2013-01-29 06:41:00,
2013-01-28 20:52:00,69.0,65.0,29.96,East,94,5.0,8.0,86,0.00,,,1.52,,2013-01-29 06:52:00,
2013-01-28 21:01:00,69.0,64.0,29.96,East,88,1.0,7.0,85,0.00,,,1.52,,2013-01-29 07:01:00,
2013-01-28 21:11:00,69.0,64.0,29.96,East,88,1.0,7.0,85,0.00,,,1.52,,2013-01-29 07:11:00,
2013-01-28 21:21:00,69.0,64.0,29.96,East,88,0.0,5.0,85,0.00,,,1.52,,2013-01-29 07:21:00,
2013-01-28 21:31:00,69.0,64.0,29.97,SSE,147,8.0,13.0,85,0.00,,,1.52,,2013-01-29 07:31:00,
2013-01-28 21:41:00,69.0,64.0,29.97,SSE,147,8.0,13.0,85,0.00,,,1.52,,2013-01-29 07:41:00,
2013-01-28 21:52:00,67.0,65.0,29.97,SSE,150,0.0,8.0,92,0.00,,,1.52,,2013-01-29 07:52:00,
2013-01-28 22:01:00,67.0,64.0,29.97,ESE,117,0.0,7.0,91,0.00,,,1.52,,2013-01-29 08:01:00,
2013-01-28 22:11:00,67.0,64.0,29.97,ESE,117,0.0,7.0,91,0.00,,,1.52,,2013-01-29 08:11:00,
2013-01-28 22:21:00,67.0,64.0,29.97,ESE,117,0.0,2.0,91,0.00,,,0.91,,2013-01-29 08:21:00,
2013-01-28 22:31:00,67.0,64.0,29.97,ESE,117,0.0,0.0,91,0.00,,,0.91,,2013-01-29 08:31:00,
2013-01-28 22:41:00,67.0,64.0,29.97,ESE,117,0.0,0.0,91,0.00,,,0.91,,2013-01-29 08:41:00,
2013-01-28 22:52:00,67.0,64.0,29.97,ESE,117,0.0,0.0,91,0.00,,,0.91,,2013-01-29 08:52:00,
2013-01-28 23:01:00,67.0,64.0,29.97,ESE,117,0.0,0.0,91,0.00,,,0.91,,2013-01-29 09:01:00,
2013-01-28 23:11:00,67.0,64.0,29.97,ESE,117,0.0,0.0,91,0.00,,,0.91,,2013-01-29 09:11:00,